createdAt,value
2022-08-14T00:02:24.674Z,17.70
2022-08-14T00:04:54.458Z,17.80
2022-08-14T00:07:21.549Z,17.80
2022-08-14T00:10:01.793Z,17.80
2022-08-14T00:12:39.358Z,17.90
2022-08-14T00:15:29.753Z,17.80
2022-08-14T00:18:04.774Z,17.80
2022-08-14T00:20:43.108Z,17.80
2022-08-14T00:23:16.232Z,17.80
2022-08-14T00:25:54.053Z,17.90
2022-08-14T00:28:35.099Z,17.90
2022-08-14T00:31:04.680Z,17.90
2022-08-14T00:33:52.186Z,17.90
2022-08-14T00:36:35.426Z,17.80
2022-08-14T00:39:14.250Z,17.80
2022-08-14T00:41:42.351Z,17.80
2022-08-14T00:44:09.921Z,17.70
2022-08-14T00:46:38.509Z,17.70
2022-08-14T00:49:06.005Z,17.70
2022-08-14T00:51:38.313Z,17.70
2022-08-14T00:54:17.041Z,17.70
2022-08-14T00:56:55.201Z,17.70
2022-08-14T00:59:28.625Z,17.70
2022-08-14T01:01:58.485Z,17.70
2022-08-14T01:04:37.850Z,17.60
2022-08-14T01:07:20.870Z,17.60
2022-08-14T01:09:59.410Z,17.60
2022-08-14T01:12:29.908Z,17.50
2022-08-14T01:15:02.765Z,17.60
2022-08-14T01:17:51.937Z,17.50
2022-08-14T01:20:40.980Z,17.60
2022-08-14T01:23:16.699Z,17.60
2022-08-14T01:25:47.962Z,17.60
2022-08-14T01:28:47.119Z,17.60
2022-08-14T01:31:02.077Z,17.60
2022-08-14T01:33:30.289Z,17.60
2022-08-14T01:36:04.512Z,17.60
2022-08-14T01:38:37.185Z,17.60
2022-08-14T01:41:17.686Z,17.60
2022-08-14T01:43:56.388Z,17.70
2022-08-14T01:46:25.404Z,17.70
2022-08-14T01:49:04.345Z,17.70
2022-08-14T01:51:35.111Z,17.70
2022-08-14T01:54:09.657Z,17.70
2022-08-14T01:56:39.339Z,17.70
2022-08-14T01:59:21.920Z,17.70
2022-08-14T02:01:58.703Z,17.70
2022-08-14T02:04:55.745Z,17.70
2022-08-14T02:07:44.751Z,17.70
2022-08-14T02:10:07.057Z,17.70
2022-08-14T02:12:34.082Z,17.80
2022-08-14T02:15:02.312Z,17.80
2022-08-14T02:17:30.899Z,17.80
2022-08-14T02:19:58.794Z,17.80
2022-08-14T02:22:32.489Z,17.80
2022-08-14T02:25:01.206Z,17.80
2022-08-14T02:28:24.608Z,17.80
2022-08-14T02:30:16.528Z,17.90
2022-08-14T02:32:44.696Z,17.90
2022-08-14T02:35:19.158Z,17.90
2022-08-14T02:37:50.147Z,17.90
2022-08-14T02:40:19.249Z,17.80
2022-08-14T02:42:54.754Z,17.80
2022-08-14T02:45:32.882Z,17.90
2022-08-14T02:48:10.393Z,17.90
2022-08-14T02:50:54.154Z,17.90
2022-08-14T02:53:21.453Z,17.90
2022-08-14T02:55:48.471Z,17.90
2022-08-14T02:58:21.486Z,17.90
2022-08-14T03:00:58.275Z,17.90
2022-08-14T03:03:26.488Z,17.80
2022-08-14T03:05:54.414Z,17.80
2022-08-14T03:08:22.775Z,17.80
2022-08-14T03:10:52.570Z,17.80
2022-08-14T03:13:24.969Z,17.90
2022-08-14T03:15:55.590Z,17.80
2022-08-14T03:18:31.511Z,17.80
2022-08-14T03:21:02.856Z,17.80
2022-08-14T03:23:37.709Z,17.90
2022-08-14T03:26:07.242Z,17.90
2022-08-14T03:28:35.026Z,17.90
2022-08-14T03:31:04.394Z,17.90
2022-08-14T03:33:40.229Z,18.00
2022-08-14T03:37:37.421Z,18.00
2022-08-14T03:39:21.337Z,18.00
2022-08-14T03:41:47.739Z,17.90
2022-08-14T03:45:25.217Z,18.00
2022-08-14T03:47:03.148Z,18.00
2022-08-14T03:49:30.398Z,17.90
2022-08-14T03:52:07.698Z,17.90
2022-08-14T03:54:52.507Z,17.90
2022-08-14T03:57:22.739Z,17.90
2022-08-14T03:59:51.174Z,17.90
2022-08-14T04:02:32.216Z,18.00
2022-08-14T04:05:12.717Z,18.00
2022-08-14T04:07:49.489Z,18.00
2022-08-14T04:10:17.863Z,18.10
2022-08-14T04:13:03.564Z,18.10
2022-08-14T04:15:31.549Z,18.10
2022-08-14T04:18:02.515Z,18.00
2022-08-14T04:20:31.485Z,18.00
2022-08-14T04:22:58.475Z,18.00
2022-08-14T04:25:25.426Z,18.00
2022-08-14T04:28:02.510Z,18.00
2022-08-14T04:30:32.687Z,18.00
2022-08-14T04:33:05.546Z,18.00
2022-08-14T04:35:55.336Z,18.00
2022-08-14T04:38:42.242Z,17.90
2022-08-14T04:41:30.543Z,17.90
2022-08-14T04:43:58.341Z,18.00
2022-08-14T04:46:55.573Z,18.00
2022-08-14T04:49:15.243Z,18.00
2022-08-14T04:51:46.828Z,18.00
2022-08-14T04:54:27.094Z,18.00
2022-08-14T04:56:58.017Z,18.10
2022-08-14T04:59:25.505Z,18.10
2022-08-14T05:01:56.969Z,18.20
2022-08-14T05:04:25.135Z,18.30
2022-08-14T05:06:55.214Z,18.30
2022-08-14T05:09:24.153Z,18.30
2022-08-14T05:11:51.825Z,18.30
2022-08-14T05:14:46.086Z,18.40
2022-08-14T05:17:11.384Z,18.50
2022-08-14T05:19:44.676Z,18.60
2022-08-14T05:22:27.025Z,18.60
2022-08-14T05:24:54.192Z,18.70
2022-08-14T05:27:23.027Z,18.80
2022-08-14T05:29:57.015Z,18.80
2022-08-14T05:32:28.302Z,18.90
2022-08-14T05:34:59.610Z,18.90
2022-08-14T05:37:29.878Z,19.00
2022-08-14T05:39:58.765Z,19.00
2022-08-14T05:42:31.722Z,19.10
2022-08-14T05:44:59.930Z,19.10
2022-08-14T05:47:29.167Z,19.20
2022-08-14T05:50:17.353Z,19.30
2022-08-14T05:52:47.469Z,19.30
2022-08-14T05:55:14.831Z,19.30
2022-08-14T05:57:59.663Z,19.30
2022-08-14T06:00:40.135Z,19.40
2022-08-14T06:03:14.929Z,19.50
2022-08-14T06:05:45.799Z,19.70
2022-08-14T06:08:41.675Z,19.90
2022-08-14T06:11:10.237Z,20.10
2022-08-14T06:13:44.922Z,20.30
2022-08-14T06:16:17.460Z,20.30
2022-08-14T06:18:47.483Z,20.40
2022-08-14T06:21:15.987Z,20.60
2022-08-14T06:23:44.610Z,20.70
2022-08-14T06:26:16.292Z,20.80
2022-08-14T06:28:47.872Z,21.00
2022-08-14T06:31:20.483Z,21.10
2022-08-14T06:35:03.922Z,21.20
2022-08-14T06:36:37.812Z,21.20
2022-08-14T06:39:09.909Z,21.10
2022-08-14T06:41:58.313Z,21.40
2022-08-14T06:44:32.394Z,21.50
2022-08-14T06:47:00.562Z,21.70
2022-08-14T06:49:27.631Z,21.80
2022-08-14T06:51:57.492Z,21.80
2022-08-14T06:54:31.219Z,21.80
2022-08-14T06:57:02.166Z,21.70
2022-08-14T06:59:30.575Z,21.70
2022-08-14T07:02:19.240Z,21.70
2022-08-14T07:05:05.488Z,21.70
2022-08-14T07:07:40.222Z,21.80
2022-08-14T07:10:16.958Z,21.80
2022-08-14T07:13:00.873Z,21.90
2022-08-14T07:15:33.842Z,22.10
2022-08-14T07:18:03.142Z,22.30
2022-08-14T07:20:32.056Z,22.60
2022-08-14T07:23:08.444Z,22.80
2022-08-14T07:25:40.443Z,23.10
2022-08-14T07:28:12.967Z,23.40
2022-08-14T07:30:51.435Z,23.70
2022-08-14T07:33:24.771Z,23.70
2022-08-14T07:35:59.476Z,24.10
2022-08-14T07:38:33.914Z,24.50
2022-08-14T07:41:12.057Z,24.70
2022-08-14T07:43:44.135Z,24.80
2022-08-14T07:46:21.271Z,25.00
2022-08-14T07:48:57.098Z,24.90
2022-08-14T07:51:24.352Z,24.40
2022-08-14T07:53:57.149Z,24.20
2022-08-14T07:56:47.673Z,24.20
2022-08-14T07:59:12.794Z,24.40
2022-08-14T08:01:51.082Z,24.50
2022-08-14T08:04:25.228Z,24.50
2022-08-14T08:06:55.280Z,24.40
2022-08-14T08:09:32.087Z,24.60
2022-08-14T08:12:04.829Z,24.80
2022-08-14T08:14:56.957Z,24.90
2022-08-14T08:17:23.680Z,25.20
2022-08-14T08:19:51.774Z,25.40
2022-08-14T08:22:21.839Z,25.60
2022-08-14T08:24:50.502Z,25.70
2022-08-14T08:27:21.461Z,25.70
2022-08-14T08:29:50.821Z,25.40
2022-08-14T08:32:21.399Z,25.70
2022-08-14T08:34:57.017Z,25.60
2022-08-14T08:37:30.680Z,25.50
2022-08-14T08:40:07.577Z,25.20
2022-08-14T08:42:38.856Z,25.20
2022-08-14T08:45:15.211Z,25.10
2022-08-14T08:47:45.570Z,25.10
2022-08-14T08:50:31.212Z,25.30
2022-08-14T08:53:02.110Z,25.50
2022-08-14T08:55:41.221Z,25.60
2022-08-14T08:58:20.057Z,25.60
2022-08-14T09:00:54.560Z,25.60
2022-08-14T09:03:27.564Z,25.60
2022-08-14T09:05:54.667Z,25.60
2022-08-14T09:08:49.755Z,25.90
2022-08-14T09:11:19.196Z,26.30
2022-08-14T09:13:53.798Z,26.50
2022-08-14T09:16:25.791Z,26.80
2022-08-14T09:18:53.995Z,26.90
2022-08-14T09:21:24.399Z,27.00
2022-08-14T09:24:29.600Z,27.20
2022-08-14T09:26:44.333Z,27.50
2022-08-14T09:29:17.559Z,27.30
2022-08-14T09:31:52.748Z,27.00
2022-08-14T09:34:59.131Z,26.90
2022-08-14T09:37:35.187Z,27.10
2022-08-14T09:40:50.071Z,27.20
2022-08-14T09:43:54.110Z,27.30
2022-08-14T09:46:25.790Z,27.50
2022-08-14T09:49:02.064Z,27.30
2022-08-14T09:51:32.991Z,27.50
2022-08-14T09:54:22.751Z,27.20
2022-08-14T09:56:57.310Z,27.10
2022-08-14T09:59:32.033Z,27.20
2022-08-14T10:01:59.744Z,27.40
2022-08-14T10:04:33.549Z,27.70
2022-08-14T10:07:08.265Z,27.50
2022-08-14T10:09:59.849Z,27.20
2022-08-14T10:12:47.762Z,27.10
2022-08-14T10:15:19.800Z,27.30
2022-08-14T10:17:49.146Z,27.30
2022-08-14T10:20:40.269Z,27.20
2022-08-14T10:23:19.971Z,27.20
2022-08-14T10:25:52.949Z,26.40
2022-08-14T10:29:03.646Z,26.00
2022-08-14T10:31:25.654Z,26.10
2022-08-14T10:34:12.727Z,26.20
2022-08-14T10:36:47.813Z,26.10
2022-08-14T10:39:20.691Z,26.30
2022-08-14T10:41:53.683Z,26.20
2022-08-14T10:44:29.704Z,26.40
2022-08-14T10:47:40.287Z,26.60
2022-08-14T10:50:06.556Z,26.50
2022-08-14T10:52:35.804Z,26.70
2022-08-14T10:55:14.223Z,26.90
2022-08-14T10:58:12.080Z,27.10
2022-08-14T11:00:47.050Z,27.30
2022-08-14T11:03:17.294Z,27.30
2022-08-14T11:05:55.663Z,27.30
2022-08-14T11:08:34.118Z,27.40
2022-08-14T11:11:03.867Z,27.50
2022-08-14T11:13:31.778Z,27.30
2022-08-14T11:16:01.573Z,27.50
2022-08-14T11:18:35.983Z,27.20
2022-08-14T11:21:08.209Z,27.10
2022-08-14T11:23:39.849Z,27.30
2022-08-14T11:26:30.010Z,27.00
2022-08-14T11:29:00.345Z,26.80
2022-08-14T11:31:38.495Z,26.70
2022-08-14T11:34:29.806Z,26.80
2022-08-14T11:37:09.726Z,26.90
2022-08-14T11:39:42.709Z,27.00
2022-08-14T11:42:57.958Z,26.70
2022-08-14T11:45:18.582Z,26.90
2022-08-14T11:48:13.428Z,27.00
2022-08-14T11:50:37.873Z,26.80
2022-08-14T11:53:07.197Z,27.00
2022-08-14T11:55:39.759Z,27.40
2022-08-14T11:58:10.546Z,27.50
2022-08-14T12:00:47.833Z,27.80
2022-08-14T12:03:16.297Z,27.50
2022-08-14T12:05:45.142Z,27.40
2022-08-14T12:08:13.618Z,27.50
2022-08-14T12:11:01.110Z,27.50
2022-08-14T12:13:34.680Z,27.80
2022-08-14T12:16:11.130Z,28.00
2022-08-14T12:19:08.038Z,28.00
2022-08-14T12:21:37.239Z,27.70
2022-08-14T12:24:08.459Z,27.70
2022-08-14T12:26:41.090Z,27.90
2022-08-14T12:29:14.554Z,28.00
2022-08-14T12:31:47.180Z,27.90
2022-08-14T12:34:20.111Z,28.10
2022-08-14T12:36:48.063Z,28.30
2022-08-14T12:39:23.821Z,28.10
2022-08-14T12:42:06.400Z,28.10
2022-08-14T12:44:44.147Z,28.20
2022-08-14T12:47:17.959Z,28.20
2022-08-14T12:49:53.017Z,28.30
2022-08-14T12:52:56.078Z,28.20
2022-08-14T12:56:18.683Z,28.00
2022-08-14T12:58:36.327Z,28.10
2022-08-14T13:01:23.077Z,28.30
2022-08-14T13:03:52.019Z,28.40
2022-08-14T13:06:23.296Z,28.60
2022-08-14T13:08:53.661Z,28.70
2022-08-14T13:11:32.796Z,28.80
2022-08-14T13:14:01.244Z,28.80
2022-08-14T13:16:37.635Z,29.10
2022-08-14T13:19:09.767Z,29.00
2022-08-14T13:21:58.942Z,29.20
2022-08-14T13:24:27.880Z,29.50
2022-08-14T13:26:58.783Z,29.50
2022-08-14T13:29:29.751Z,29.30
2022-08-14T13:31:58.925Z,29.30
2022-08-14T13:34:28.918Z,28.70
2022-08-14T13:37:03.912Z,28.90
2022-08-14T13:39:36.322Z,28.90
2022-08-14T13:42:13.221Z,28.40
2022-08-14T13:44:43.348Z,28.50
2022-08-14T13:47:15.262Z,28.60
2022-08-14T13:49:57.410Z,28.70
2022-08-14T13:52:52.941Z,28.90
2022-08-14T13:55:16.560Z,29.00
2022-08-14T13:57:49.322Z,29.30
2022-08-14T14:00:21.634Z,29.60
2022-08-14T14:02:59.878Z,29.40
2022-08-14T14:05:52.763Z,29.60
2022-08-14T14:08:19.110Z,29.10
2022-08-14T14:11:04.218Z,29.20
2022-08-14T14:13:32.035Z,29.30
2022-08-14T14:16:06.241Z,29.50
2022-08-14T14:18:35.372Z,29.60
2022-08-14T14:21:09.187Z,29.60
2022-08-14T14:23:38.169Z,29.70
2022-08-14T14:26:06.540Z,29.40
2022-08-14T14:28:42.701Z,29.30
2022-08-14T14:31:12.075Z,29.00
2022-08-14T14:33:47.642Z,28.90
2022-08-14T14:36:20.976Z,28.60
2022-08-14T14:38:54.078Z,28.50
2022-08-14T14:41:24.311Z,28.50
2022-08-14T14:43:52.453Z,28.40
2022-08-14T14:46:36.516Z,28.60
2022-08-14T14:49:06.455Z,29.00
2022-08-14T14:51:43.318Z,29.50
2022-08-14T14:54:12.942Z,29.50
2022-08-14T14:56:50.878Z,29.10
2022-08-14T14:59:20.034Z,28.80
2022-08-14T15:01:52.609Z,28.90
2022-08-14T15:04:20.867Z,31.60
2022-08-14T15:06:48.986Z,34.50
2022-08-14T15:09:17.948Z,35.80
2022-08-14T15:11:47.146Z,37.00
2022-08-14T15:14:55.356Z,37.90
2022-08-14T15:17:02.559Z,36.20
2022-08-14T15:19:29.765Z,35.10
2022-08-14T15:21:57.883Z,35.70
2022-08-14T15:24:26.951Z,34.90
2022-08-14T15:26:58.488Z,33.60
2022-08-14T15:29:25.619Z,32.70
2022-08-14T15:31:54.033Z,32.20
2022-08-14T15:34:43.038Z,31.60
2022-08-14T15:37:10.947Z,30.90
2022-08-14T15:39:41.264Z,30.50
2022-08-14T15:42:16.394Z,29.60
2022-08-14T15:44:57.039Z,29.20
2022-08-14T15:47:28.111Z,29.10
2022-08-14T15:50:01.170Z,29.10
2022-08-14T15:52:34.389Z,29.20
2022-08-14T15:55:13.055Z,29.40
2022-08-14T15:57:51.462Z,29.70
2022-08-14T16:00:51.885Z,29.80
2022-08-14T16:03:27.916Z,29.60
2022-08-14T16:06:15.643Z,29.50
2022-08-14T16:08:58.667Z,29.30
2022-08-14T16:11:28.854Z,29.50
2022-08-14T16:14:01.100Z,29.50
2022-08-14T16:16:49.812Z,29.40
2022-08-14T16:19:23.718Z,29.40
2022-08-14T16:24:59.905Z,29.30
2022-08-14T16:27:37.858Z,29.20
2022-08-14T16:30:20.751Z,29.00
2022-08-14T16:32:55.093Z,28.90
2022-08-14T16:35:26.358Z,28.80
2022-08-14T16:38:19.702Z,28.60
2022-08-14T16:40:24.106Z,29.30
2022-08-14T16:41:17.447Z,28.50
2022-08-14T16:43:45.662Z,28.20
2022-08-14T16:46:23.576Z,28.10
2022-08-14T16:48:55.165Z,28.10
2022-08-14T16:51:26.138Z,27.90
2022-08-14T16:53:56.061Z,27.90
2022-08-14T16:56:25.349Z,27.90
2022-08-14T16:59:04.925Z,27.90
2022-08-14T17:01:32.398Z,27.80
2022-08-14T17:04:14.814Z,27.60
2022-08-14T17:06:55.110Z,27.50
2022-08-14T17:09:54.717Z,27.50
2022-08-14T17:12:35.138Z,27.40
2022-08-14T17:15:10.192Z,27.40
2022-08-14T17:17:40.980Z,27.30
2022-08-14T17:20:39.614Z,27.20
2022-08-14T17:23:02.482Z,27.00
2022-08-14T17:25:38.975Z,26.90
2022-08-14T17:28:51.661Z,26.70
2022-08-14T17:31:07.854Z,26.60
2022-08-14T17:33:44.334Z,26.50
2022-08-14T17:36:23.994Z,26.30
2022-08-14T17:39:06.742Z,26.20
2022-08-14T17:42:01.922Z,26.00
2022-08-14T17:44:45.152Z,25.90
2022-08-14T17:47:18.366Z,25.70
2022-08-14T17:49:51.540Z,25.50
2022-08-14T17:52:34.267Z,25.30
2022-08-14T17:55:03.628Z,25.20
2022-08-14T17:57:35.176Z,25.00
2022-08-14T18:00:11.802Z,24.80
2022-08-14T18:02:41.210Z,24.60
2022-08-14T18:05:23.297Z,24.40
2022-08-14T18:08:31.553Z,24.30
2022-08-14T18:10:55.195Z,24.20
2022-08-14T18:13:49.669Z,24.00
2022-08-14T18:16:20.283Z,23.90
2022-08-14T18:18:50.056Z,23.80
2022-08-14T18:21:40.515Z,23.60
2022-08-14T18:24:20.378Z,23.60
2022-08-14T18:27:01.899Z,23.50
2022-08-14T18:29:32.037Z,23.50
2022-08-14T18:31:59.978Z,23.40
2022-08-14T18:34:37.972Z,23.40
2022-08-14T18:37:21.210Z,23.30
2022-08-14T18:40:02.937Z,23.30
2022-08-14T18:42:34.837Z,23.20
2022-08-14T18:45:12.385Z,23.20
2022-08-14T18:48:14.716Z,23.10
2022-08-14T18:50:30.953Z,23.00
2022-08-14T18:53:10.684Z,23.00
2022-08-14T18:55:53.110Z,22.90
2022-08-14T18:58:34.160Z,22.80
2022-08-14T19:01:04.703Z,22.80
2022-08-14T19:03:37.082Z,22.70
2022-08-14T19:06:09.693Z,22.70
2022-08-14T19:08:45.531Z,22.60
2022-08-14T19:11:32.108Z,22.60
2022-08-14T19:14:05.267Z,22.40
2022-08-14T19:16:36.860Z,22.40
2022-08-14T19:19:09.536Z,22.30
2022-08-14T19:21:56.900Z,22.30
2022-08-14T19:24:44.065Z,22.20
2022-08-14T19:27:26.089Z,22.20
2022-08-14T19:30:20.030Z,22.10
2022-08-14T19:32:57.086Z,22.00
2022-08-14T19:35:41.710Z,22.00
2022-08-14T19:38:57.408Z,22.00
2022-08-14T19:41:29.426Z,21.90
2022-08-14T19:44:10.508Z,21.80
2022-08-14T19:47:02.832Z,21.70
2022-08-14T19:50:30.388Z,21.70
2022-08-14T19:52:30.312Z,21.60
2022-08-14T19:55:15.521Z,21.60
2022-08-14T19:57:42.466Z,21.50
2022-08-14T20:00:29.272Z,21.50
2022-08-14T20:03:10.861Z,21.40
2022-08-14T20:05:45.891Z,21.30
2022-08-14T20:10:58.268Z,21.30
2022-08-14T20:11:19.240Z,21.30
2022-08-14T20:13:58.084Z,21.20
2022-08-14T20:16:36.808Z,21.10
2022-08-14T20:19:12.073Z,21.10
2022-08-14T20:21:58.006Z,21.10
2022-08-14T20:24:31.280Z,21.00
2022-08-14T20:27:22.677Z,21.00
2022-08-14T20:30:34.777Z,21.00
2022-08-14T20:33:07.285Z,20.90
2022-08-14T20:35:49.312Z,20.90
2022-08-14T20:38:32.649Z,20.80
2022-08-14T20:41:09.716Z,20.80
2022-08-14T20:44:00.866Z,20.70
2022-08-14T20:46:39.020Z,20.60
2022-08-14T20:49:16.826Z,20.60
2022-08-14T20:51:58.750Z,20.60
2022-08-14T20:54:33.383Z,20.60
2022-08-14T20:57:09.777Z,20.60
2022-08-14T20:59:50.379Z,20.50
2022-08-14T21:02:34.215Z,20.50
2022-08-14T21:05:17.233Z,20.50
2022-08-14T21:07:51.371Z,20.40
2022-08-14T21:10:35.863Z,20.40
2022-08-14T21:14:09.153Z,20.30
2022-08-14T21:16:03.557Z,20.20
2022-08-14T21:18:33.354Z,20.30
2022-08-14T21:21:07.661Z,20.20
2022-08-14T21:23:54.510Z,20.20
2022-08-14T21:26:51.329Z,20.20
2022-08-14T21:29:17.460Z,20.20
2022-08-14T21:31:55.536Z,20.20
2022-08-14T21:34:31.396Z,20.20
2022-08-14T21:37:09.149Z,20.10
2022-08-14T21:39:38.088Z,20.10
2022-08-14T21:42:06.596Z,20.10
2022-08-14T21:44:43.780Z,20.00
2022-08-14T21:47:12.988Z,20.00
2022-08-14T21:49:43.041Z,19.90
2022-08-14T21:52:49.815Z,19.90
2022-08-14T21:55:10.385Z,19.80
2022-08-14T21:58:46.215Z,19.80
2022-08-14T22:00:42.118Z,19.80
2022-08-14T22:03:13.982Z,19.70
2022-08-14T22:05:42.161Z,19.60
2022-08-14T22:08:13.993Z,19.60
2022-08-14T22:10:47.150Z,19.70
2022-08-14T22:13:21.702Z,19.60
2022-08-14T22:15:56.682Z,19.60
2022-08-14T22:18:27.221Z,19.60
2022-08-14T22:20:57.197Z,19.60
2022-08-14T22:23:27.236Z,19.60
2022-08-14T22:25:55.350Z,19.60
2022-08-14T22:28:33.004Z,19.60
2022-08-14T22:31:18.259Z,19.60
2022-08-14T22:33:50.209Z,19.60
2022-08-14T22:36:45.377Z,19.60
2022-08-14T22:39:12.877Z,19.50
2022-08-14T22:41:42.917Z,19.50
2022-08-14T22:44:14.450Z,19.50
2022-08-14T22:46:43.131Z,19.50
2022-08-14T22:49:16.450Z,19.40
2022-08-14T22:51:58.135Z,19.40
2022-08-14T22:54:53.179Z,19.30
2022-08-14T22:57:14.035Z,19.20
2022-08-14T22:59:41.682Z,19.20
2022-08-14T23:02:16.059Z,19.20
2022-08-14T23:04:54.364Z,19.20
2022-08-14T23:07:24.006Z,19.20
2022-08-14T23:09:57.001Z,19.20
2022-08-14T23:12:28.767Z,19.10
2022-08-14T23:14:57.546Z,19.10
2022-08-14T23:17:24.542Z,19.00
2022-08-14T23:19:56.451Z,19.00
2022-08-14T23:22:26.294Z,19.00
2022-08-14T23:24:57.831Z,19.00
2022-08-14T23:27:31.996Z,18.90
2022-08-14T23:30:31.864Z,18.80
2022-08-14T23:33:03.405Z,18.80
2022-08-14T23:35:33.293Z,18.80
2022-08-14T23:38:05.628Z,18.80
2022-08-14T23:40:34.555Z,18.70
2022-08-14T23:43:02.417Z,18.70
2022-08-14T23:45:36.887Z,18.70
2022-08-14T23:48:09.910Z,18.80
2022-08-14T23:50:40.850Z,18.80
2022-08-14T23:53:47.153Z,18.70
2022-08-14T23:56:13.237Z,18.70
2022-08-14T23:58:40.652Z,18.70
